Metar z pełnej godziny Komunikat METAR ze strony awiacja.imgw.pl Metar G00 EPRZ METAR EPRZ 200200Z VRB01KT CAVOK 16/16 Q1018 =